메인 페이지
METAR-TAF:

METAR-TAF

공항 :

호르헤 뉴베리 공항

부에노스아이레스, 아르헨티나

위도: 34-34S, 경도: 058-25W, 고도: 6m

현재 날씨관측

예보는 1 시간 14분 전, 14:00시(UTC)에 발표되었습니다.
북북서4kt
온도 14°C
습도 82%
기압 1024 hPa
시정 10km 이상
고도 4400ft 상공 구름 보통

METAR: SABE 301400Z 34004KT 9999 SCT044 14/11 Q1024 NOSIG

시각: 12:14 (15:14 UTC)

예보

예보는 4 시간 14분 전, 11:00시(UTC)에 발표되었습니다.
예보 대상 시간: 30일 12시부터 31일 12시까지 (UTC)
북북서5kt
시정 10km 이상
고도 4000ft 상공 구름 많음
전환 중
30일 19시부터 30일 21시까지 (UTC)
북동5kt
전환 중
31일 06시부터 31일 08시까지 (UTC)
시정: 8000m
고도 1500ft 상공 구름 많음

TAF: SABE 301100Z 3012/3112 34005KT 9999 BKN040 TX16/3018Z TN12/3110Z BECMG 3019/3021 05005KT BECMG 3106/3108 8000 BKN015

4,000개 이상의 공항 관측 자료 및 예보 (METAR 및 TAF 보고).

지도상에서 검색 가능한 기상관측소가 노란 점과 빨간 점으로 표시되어 있습니다.

기상관측소 명을 보려면 표시 위로 마우스를 이동하세요.

날씨 관측과 예보를 보려면 클릭하세요.

지도 변경 : 확대하려면 엑스 표시가 있는 녹색 버튼, 축소하려면 빼기 표시가 있는 녹색 버튼, 다음 페이지의 지도를 보려면 녹색 화살표를 클릭하세요.


METAR-TAF: